Shamrock, Texas
Current Conditions -  °F | °C
As of 10:15 PM on Wednesday 22 Oct 2014 (Local Time) from KHHF Reporting Station
Overcast Overcast  
Wind Chill: 62°   Ceiling: 600
Heat Index: 62°   Visibility: 7mi
Dew Point: 60°   Wind: 10mph
Humidity: 94%   Direction: 190°S
Pressure: 30.1"   Gusts: NA
Location:  35.21°N, 100.25°W
Report Text: KHHF 230315Z AUTO 19009KT 7SM OVC006 17/16 A3010 RMK AO2 T01670158
Loading
Personal Weather Stations






























Interactive Weather Map
Tropical Storm Tracking
New forecast layout! Learn more

10-Day Weather Forecast

Advertisements
Track Severe Weather on mobile